Black Watch — C6RS5 — position and weather

sailwx.info

Track history (hours):
 
Tides and Currents Weather Stations Pressure Air Temp Water Temp Dewpoint Dewpoint Depression Visibility Wind Speed Wind Dir Waves Ship Positions

Black Watch

Last reported at 2017-Apr-27 00:38 UTC. Time now 2017-Apr-27 07:14 UTC.
Position N 38°25' W 010°01'.

Length 205 m; draft 7.5 m.

Type: Passenger vessel. MMSI: 311166000.

Date/timePositionNaut miles runAvg speedWind from/ knotsBaromVisibWave heightAir tempDewpointWater temp
2017-Apr-27 00:38N 38°25' W 010°01'313.0
2017-Apr-27 00:27N 38°27' W 010°02'1013.1
2017-Apr-26 23:39N 38°37' W 010°05'213.0
2017-Apr-26 23:30N 38°39' W 010°06'713.3
2017-Apr-26 23:00N 38°46' W 010°06'612.9
2017-Apr-26 22:30N 38°52' W 010°06'713.1
2017-Apr-26 22:00N 38°59' W 010°06'713.5
2017-Apr-26 21:30N 39°06' W 010°06'713.6
2017-Apr-26 21:00N 39°13' W 010°06'69315.6
2017-Apr-25 00:30N 49°47' W 003°37'1019.4
2017-Apr-25 00:00N 49°52' W 003°25'1019.7
2017-Apr-24 23:30N 49°55' W 003°10'1019.6
2017-Apr-24 23:00N 49°59' W 002°56'1019.3
2017-Apr-24 22:29N 50°02' W 002°41'5616.5
2017-Apr-24 19:06N 50°26' W 001°22'114.5
2017-Apr-24 19:00N 50°26' W 001°20'714.0
2017-Apr-24 18:30N 50°30' W 001°11'713.7
2017-Apr-24 18:00N 50°33' W 001°01'815.5
2017-Apr-24 17:31N 50°41' W 000°58'714.0
2017-Apr-24 17:01N 50°45' W 001°07'815.5
2017-Apr-24 16:30N 50°48' W 001°18'5 9.3
2017-Apr-24 16:00N 50°52' W 001°22'3 1.0
2017-Apr-24 13:17N 50°54' W 001°25'0 0.0
2017-Apr-24 12:56N 50°54' W 001°25'0 0.0
2017-Apr-24 12:26N 50°54' W 001°25'0 0.0
2017-Apr-24 11:56N 50°54' W 001°25'0 0.0
2017-Apr-24 11:20N 50°54' W 001°25'0 0.0
2017-Apr-24 10:44N 50°54' W 001°25'0 0.0
2017-Apr-24 10:23N 50°54' W 001°25'0 0.0
2017-Apr-24 09:59N 50°54' W 001°25'0 0.0
2017-Apr-24 09:17N 50°54' W 001°25'0 0.0
2017-Apr-24 08:53N 50°54' W 001°25'0 0.0
2017-Apr-24 08:17N 50°54' W 001°25'0 0.0
2017-Apr-24 07:59N 50°54' W 001°25'0 0.0
2017-Apr-24 07:14N 50°54' W 001°25'0 0.0
2017-Apr-24 06:56N 50°54' W 001°25'0 0.0
2017-Apr-24 06:23N 50°54' W 001°25'0 0.0
2017-Apr-24 05:56N 50°54' W 001°25'0 0.0
2017-Apr-24 05:26N 50°54' W 001°25'0 0.0
2017-Apr-24 05:00N 50°54' W 001°25'1 2.0
2017-Apr-24 04:31N 50°53' W 001°24'5 9.3
2017-Apr-24 04:00N 50°50' W 001°19'4 7.5
2017-Apr-24 03:30N 50°46' W 001°16'815.8
2017-Apr-24 03:00N 50°44' W 001°04'612.7
2017-Apr-24 02:30N 50°39' W 000°58'816.6
2017-Apr-24 02:00N 50°31' W 000°53'816.6
2017-Apr-24 01:30N 50°24' W 000°47'4 8.8
2017-Apr-24 01:00N 50°20' W 000°45'5 9.5
2017-Apr-24 00:30N 50°15' W 000°44'5 9.8
2017-Apr-24 00:00N 50°10' W 000°42'510.8
2017-Apr-23 23:30N 50°07' W 000°36'510.0
2017-Apr-23 23:00N 50°02' W 000°34'510.1
2017-Apr-23 22:30N 49°57' W 000°31'510.1
2017-Apr-23 22:00N 49°52' W 000°28'5 9.6
2017-Apr-23 21:30N 49°48' W 000°25'4 9.0
2017-Apr-23 21:00N 49°44' W 000°23'4 8.8
2017-Apr-23 20:30N 49°39' W 000°21'4 8.8
2017-Apr-23 20:00N 49°35' W 000°19'4 7.9
2017-Apr-23 19:30N 49°32' W 000°15'5 9.4
2017-Apr-23 19:00N 49°30' W 000°09'611.8
2017-Apr-23 18:30N 49°28' W 000°00'714.2
2017-Apr-23 18:00N 49°26' E 000°10'612.6
2017-Apr-23 17:30N 49°26' E 000°20'611.5
2017-Apr-23 17:00N 49°28' E 000°28'4 7.7
2017-Apr-23 16:30N 49°27' E 000°33'4 8.8
2017-Apr-23 16:00N 49°28' E 000°40'5 7.4
2017-Apr-23 15:23N 49°30' E 000°46'8 9.1
2017-Apr-23 14:33N 49°24' E 000°52'5 7.6
2017-Apr-23 13:53N 49°28' E 000°56'0 0.0
2017-Apr-22 08:24N 49°28' E 000°56'4 6.1
2017-Apr-22 07:44N 49°25' E 000°52'3 6.0
2017-Apr-22 07:15N 49°26' E 000°48'2 9.4
2017-Apr-22 07:00N 49°28' E 000°49'6 6.6
2017-Apr-22 06:10N 49°29' E 000°40'211.6
2017-Apr-22 06:00N 49°27' E 000°39'5 9.3
2017-Apr-22 05:30N 49°28' E 000°32'4 8.8
2017-Apr-22 05:00N 49°27' E 000°26'612.2
2017-Apr-22 04:30N 49°26' E 000°17'611.2
2017-Apr-22 04:00N 49°26' E 000°08'5 9.1
2017-Apr-22 03:30N 49°27' E 000°01'5 9.5
2017-Apr-22 03:00N 49°29' W 000°06'4 8.9
2017-Apr-22 02:30N 49°30' W 000°12'5 9.9
2017-Apr-22 02:00N 49°32' W 000°19'5 9.3
2017-Apr-22 01:30N 49°35' W 000°24'510.2
2017-Apr-22 01:00N 49°40' W 000°27'510.2
2017-Apr-22 00:30N 49°45' W 000°30'5 9.9
2017-Apr-22 00:00N 49°49' W 000°32'5 9.6
2017-Apr-21 23:30N 49°54' W 000°35'5 9.5
2017-Apr-21 23:00N 49°58' W 000°37'5 9.6
2017-Apr-21 22:30N 50°03' W 000°40'5 9.6
2017-Apr-21 22:00N 50°08' W 000°42'5 9.7
2017-Apr-21 21:30N 50°12' W 000°45'610.0
2017-Apr-21 20:57N 50°17' W 000°47'510.4
2017-Apr-21 20:28N 50°22' W 000°50'510.2
2017-Apr-21 20:00N 50°27' W 000°52'10 9.8
2017-Apr-21 19:00N 50°36' W 000°57'714.3
2017-Apr-21 18:30N 50°43' W 000°60'612.8
2017-Apr-21 18:00N 50°46' W 001°09'612.9
2017-Apr-21 17:31N 50°47' W 001°18'4 8.9
2017-Apr-21 17:00N 50°51' W 001°21'4 7.8
2017-Apr-21 16:31N 50°54' W 001°25'0 0.0
2017-Apr-21 14:58N 50°54' W 001°25'0 0.0
2017-Apr-21 14:28N 50°54' W 001°25'0 0.0
2017-Apr-21 09:40N 50°54' W 001°25'0 0.0
2017-Apr-21 09:10N 50°54' W 001°25'0 0.0
2017-Apr-21 08:58N 50°54' W 001°25'0 0.0
2017-Apr-21 08:22N 50°54' W 001°25'0 0.0
2017-Apr-21 07:34N 50°54' W 001°25'0 0.0
2017-Apr-21 07:22N 50°54' W 001°25'0 0.0
2017-Apr-21 06:58N 50°54' W 001°25'0 0.0
2017-Apr-21 06:22N 50°54' W 001°25'0 0.0
2017-Apr-21 05:52N 50°54' W 001°25'0 0.0
2017-Apr-21 05:22N 50°54' W 001°25'0 0.2
2017-Apr-21 05:00N 50°54' W 001°25'3 5.9
2017-Apr-21 04:30N 50°52' W 001°22'510.2
2017-Apr-21 04:00N 50°47' W 001°19'714.8
2017-Apr-21 03:30N 50°45' W 001°08'815.3
2017-Apr-21 03:00N 50°41' W 000°58'612.8
2017-Apr-21 02:30N 50°34' W 001°01'713.7
2017-Apr-21 02:00N 50°31' W 001°10'6914.1
2017-Apr-20 21:07N 50°12' W 002°54'213.1
2017-Apr-20 20:59N 50°11' W 002°56'612.9
2017-Apr-20 20:30N 50°08' W 003°05'612.9
2017-Apr-20 20:00N 50°05' W 003°13'713.1
2017-Apr-20 19:30N 50°00' W 003°21'713.0
2017-Apr-20 19:00N 49°56' W 003°29'713.2
2017-Apr-20 18:30N 49°52' W 003°37'714.1
2017-Apr-20 18:00N 49°48' W 003°45'8614.0
2017-Apr-20 11:51N 48°52' W 005°26'617.3
2017-Apr-20 11:29N 48°48' W 005°33'2617.0
2017-Apr-20 09:58N 48°25' W 005°53'1616.5
2017-Apr-20 08:59N 48°11' W 006°04'2316.4
2017-Apr-20 07:34N 47°50' W 006°20'46514.3
2017-Apr-18 23:03N 40°30' W 009°50'117.0
2017-Apr-18 23:00N 40°29' W 009°50'917.2
2017-Apr-18 22:29N 40°20' W 009°50'817.2
2017-Apr-18 22:00N 40°12' W 009°50'1517.4
2017-Apr-18 21:09N 39°57' W 009°51'217.4
2017-Apr-18 21:00N 39°55' W 009°51'917.7
2017-Apr-18 20:30N 39°46' W 009°52'917.6
2017-Apr-18 20:00N 39°37' W 009°52'917.3
2017-Apr-18 19:30N 39°28' W 009°52'917.7
2017-Apr-18 19:00N 39°20' W 009°52'917.9
2017-Apr-18 18:30N 39°11' W 009°52'918.2
2017-Apr-18 18:00N 39°02' W 009°52'918.1
2017-Apr-18 17:30N 38°53' W 009°52'918.0
2017-Apr-18 17:00N 38°44' W 009°52'918.1
2017-Apr-18 16:30N 38°35' W 009°49'918.0
2017-Apr-18 16:00N 38°26' W 009°47'917.9
2017-Apr-18 15:30N 38°17' W 009°45'917.8
2017-Apr-18 15:00N 38°08' W 009°42'917.7
2017-Apr-18 14:30N 37°60' W 009°40'1817.7
2017-Apr-18 13:31N 37°43' W 009°35'917.5
2017-Apr-18 13:00N 37°34' W 009°32'917.5
2017-Apr-18 12:31N 37°26' W 009°30'917.9
2017-Apr-18 12:01N 37°17' W 009°27'2220.7
2017-Apr-18 10:56N 36°55' W 009°19'510.8
2017-Apr-18 10:26N 36°51' W 009°15'817.8
2017-Apr-18 09:58N 36°45' W 009°08'917.8
2017-Apr-18 09:27N 36°42' W 008°58'817.7
2017-Apr-18 09:00N 36°39' W 008°48'917.5
2017-Apr-18 08:30N 36°36' W 008°38'1217.8
2017-Apr-18 07:50N 36°32' W 008°24'617.3
2017-Apr-18 07:29N 36°31' W 008°17'1117.8
2017-Apr-18 06:54N 36°27' W 008°04'717.6
2017-Apr-18 06:30N 36°25' W 007°56'917.7
2017-Apr-18 06:00N 36°22' W 007°46'1218.0
2017-Apr-18 05:21N 36°18' W 007°32'1118.0
2017-Apr-18 04:45N 36°15' W 007°20'5617.9
2017-Apr-18 01:39N 35°58' W 006°14'317.5
2017-Apr-18 01:29N 35°57' W 006°11'817.5
2017-Apr-18 01:00N 35°57' W 006°00'917.3
2017-Apr-18 00:28N 35°57' W 005°49'816.7
2017-Apr-18 00:00N 35°57' W 005°39'815.3
2017-Apr-17 23:30N 35°59' W 005°30'714.9
2017-Apr-17 23:00N 36°01' W 005°21'816.0
2017-Apr-17 22:30N 36°03' W 005°12'816.1
2017-Apr-17 22:00N 36°07' W 005°03'815.6
2017-Apr-17 21:30N 36°11' W 004°54'1015.6
2017-Apr-17 20:53N 36°15' W 004°44'717.0
2017-Apr-17 20:28N 36°18' W 004°36'818.1
2017-Apr-17 20:00N 36°22' W 004°26'917.6
2017-Apr-17 19:30N 36°31' W 004°25'917.2
2017-Apr-17 19:00N 36°40' W 004°25'  
Track history (hours):
 
Tides and Currents Weather Stations Pressure Air Temp Water Temp Dewpoint Dewpoint Depression Visibility Wind Speed Wind Dir Waves Ship Positions

Black Watch

Last reported at 2017-Apr-27 00:38 UTC. Time now 2017-Apr-27 07:14 UTC.
Position N 38°25' W 010°01'.

Length 205 m; draft 7.5 m.

Type: Passenger vessel. MMSI: 311166000.

Date/timePositionNaut miles runAvg speedWind from/ knotsBaromVisibWave heightAir tempDewpointWater temp
2017-Apr-27 00:38N 38°25' W 010°01'313.0
2017-Apr-27 00:27N 38°27' W 010°02'1013.1
2017-Apr-26 23:39N 38°37' W 010°05'213.0
2017-Apr-26 23:30N 38°39' W 010°06'713.3
2017-Apr-26 23:00N 38°46' W 010°06'612.9
2017-Apr-26 22:30N 38°52' W 010°06'713.1
2017-Apr-26 22:00N 38°59' W 010°06'713.5
2017-Apr-26 21:30N 39°06' W 010°06'713.6
2017-Apr-26 21:00N 39°13' W 010°06'69315.6
2017-Apr-25 00:30N 49°47' W 003°37'1019.4
2017-Apr-25 00:00N 49°52' W 003°25'1019.7
2017-Apr-24 23:30N 49°55' W 003°10'1019.6
2017-Apr-24 23:00N 49°59' W 002°56'1019.3
2017-Apr-24 22:29N 50°02' W 002°41'5616.5
2017-Apr-24 19:06N 50°26' W 001°22'114.5
2017-Apr-24 19:00N 50°26' W 001°20'714.0
2017-Apr-24 18:30N 50°30' W 001°11'713.7
2017-Apr-24 18:00N 50°33' W 001°01'815.5
2017-Apr-24 17:31N 50°41' W 000°58'714.0
2017-Apr-24 17:01N 50°45' W 001°07'815.5
2017-Apr-24 16:30N 50°48' W 001°18'5 9.3
2017-Apr-24 16:00N 50°52' W 001°22'3 1.0
2017-Apr-24 13:17N 50°54' W 001°25'0 0.0
2017-Apr-24 12:56N 50°54' W 001°25'0 0.0
2017-Apr-24 12:26N 50°54' W 001°25'0 0.0
2017-Apr-24 11:56N 50°54' W 001°25'0 0.0
2017-Apr-24 11:20N 50°54' W 001°25'0 0.0
2017-Apr-24 10:44N 50°54' W 001°25'0 0.0
2017-Apr-24 10:23N 50°54' W 001°25'0 0.0
2017-Apr-24 09:59N 50°54' W 001°25'0 0.0
2017-Apr-24 09:17N 50°54' W 001°25'0 0.0
2017-Apr-24 08:53N 50°54' W 001°25'0 0.0
2017-Apr-24 08:17N 50°54' W 001°25'0 0.0
2017-Apr-24 07:59N 50°54' W 001°25'0 0.0
2017-Apr-24 07:14N 50°54' W 001°25'0 0.0
2017-Apr-24 06:56N 50°54' W 001°25'0 0.0
2017-Apr-24 06:23N 50°54' W 001°25'0 0.0
2017-Apr-24 05:56N 50°54' W 001°25'0 0.0
2017-Apr-24 05:26N 50°54' W 001°25'0 0.0
2017-Apr-24 05:00N 50°54' W 001°25'1 2.0
2017-Apr-24 04:31N 50°53' W 001°24'5 9.3
2017-Apr-24 04:00N 50°50' W 001°19'4 7.5
2017-Apr-24 03:30N 50°46' W 001°16'815.8
2017-Apr-24 03:00N 50°44' W 001°04'612.7
2017-Apr-24 02:30N 50°39' W 000°58'816.6
2017-Apr-24 02:00N 50°31' W 000°53'816.6
2017-Apr-24 01:30N 50°24' W 000°47'4 8.8
2017-Apr-24 01:00N 50°20' W 000°45'5 9.5
2017-Apr-24 00:30N 50°15' W 000°44'5 9.8
2017-Apr-24 00:00N 50°10' W 000°42'510.8
2017-Apr-23 23:30N 50°07' W 000°36'510.0
2017-Apr-23 23:00N 50°02' W 000°34'510.1
2017-Apr-23 22:30N 49°57' W 000°31'510.1
2017-Apr-23 22:00N 49°52' W 000°28'5 9.6
2017-Apr-23 21:30N 49°48' W 000°25'4 9.0
2017-Apr-23 21:00N 49°44' W 000°23'4 8.8
2017-Apr-23 20:30N 49°39' W 000°21'4 8.8
2017-Apr-23 20:00N 49°35' W 000°19'4 7.9
2017-Apr-23 19:30N 49°32' W 000°15'5 9.4
2017-Apr-23 19:00N 49°30' W 000°09'611.8
2017-Apr-23 18:30N 49°28' W 000°00'714.2
2017-Apr-23 18:00N 49°26' E 000°10'612.6
2017-Apr-23 17:30N 49°26' E 000°20'611.5
2017-Apr-23 17:00N 49°28' E 000°28'4 7.7
2017-Apr-23 16:30N 49°27' E 000°33'4 8.8
2017-Apr-23 16:00N 49°28' E 000°40'5 7.4
2017-Apr-23 15:23N 49°30' E 000°46'8 9.1
2017-Apr-23 14:33N 49°24' E 000°52'5 7.6
2017-Apr-23 13:53N 49°28' E 000°56'0 0.0
2017-Apr-22 08:24N 49°28' E 000°56'4 6.1
2017-Apr-22 07:44N 49°25' E 000°52'3 6.0
2017-Apr-22 07:15N 49°26' E 000°48'2 9.4
2017-Apr-22 07:00N 49°28' E 000°49'6 6.6
2017-Apr-22 06:10N 49°29' E 000°40'211.6
2017-Apr-22 06:00N 49°27' E 000°39'5 9.3
2017-Apr-22 05:30N 49°28' E 000°32'4 8.8
2017-Apr-22 05:00N 49°27' E 000°26'612.2
2017-Apr-22 04:30N 49°26' E 000°17'611.2
2017-Apr-22 04:00N 49°26' E 000°08'5 9.1
2017-Apr-22 03:30N 49°27' E 000°01'5 9.5
2017-Apr-22 03:00N 49°29' W 000°06'4 8.9
2017-Apr-22 02:30N 49°30' W 000°12'5 9.9
2017-Apr-22 02:00N 49°32' W 000°19'5 9.3
2017-Apr-22 01:30N 49°35' W 000°24'510.2
2017-Apr-22 01:00N 49°40' W 000°27'510.2
2017-Apr-22 00:30N 49°45' W 000°30'5 9.9
2017-Apr-22 00:00N 49°49' W 000°32'5 9.6
2017-Apr-21 23:30N 49°54' W 000°35'5 9.5
2017-Apr-21 23:00N 49°58' W 000°37'5 9.6
2017-Apr-21 22:30N 50°03' W 000°40'5 9.6
2017-Apr-21 22:00N 50°08' W 000°42'5 9.7
2017-Apr-21 21:30N 50°12' W 000°45'610.0
2017-Apr-21 20:57N 50°17' W 000°47'510.4
2017-Apr-21 20:28N 50°22' W 000°50'510.2
2017-Apr-21 20:00N 50°27' W 000°52'10 9.8
2017-Apr-21 19:00N 50°36' W 000°57'714.3
2017-Apr-21 18:30N 50°43' W 000°60'612.8
2017-Apr-21 18:00N 50°46' W 001°09'612.9
2017-Apr-21 17:31N 50°47' W 001°18'4 8.9
2017-Apr-21 17:00N 50°51' W 001°21'4 7.8
2017-Apr-21 16:31N 50°54' W 001°25'0 0.0
2017-Apr-21 14:58N 50°54' W 001°25'0 0.0
2017-Apr-21 14:28N 50°54' W 001°25'0 0.0
2017-Apr-21 09:40N 50°54' W 001°25'0 0.0
2017-Apr-21 09:10N 50°54' W 001°25'0 0.0
2017-Apr-21 08:58N 50°54' W 001°25'0 0.0
2017-Apr-21 08:22N 50°54' W 001°25'0 0.0
2017-Apr-21 07:34N 50°54' W 001°25'0 0.0
2017-Apr-21 07:22N 50°54' W 001°25'0 0.0
2017-Apr-21 06:58N 50°54' W 001°25'0 0.0
2017-Apr-21 06:22N 50°54' W 001°25'0 0.0
2017-Apr-21 05:52N 50°54' W 001°25'0 0.0
2017-Apr-21 05:22N 50°54' W 001°25'0 0.2
2017-Apr-21 05:00N 50°54' W 001°25'3 5.9
2017-Apr-21 04:30N 50°52' W 001°22'510.2
2017-Apr-21 04:00N 50°47' W 001°19'714.8
2017-Apr-21 03:30N 50°45' W 001°08'815.3
2017-Apr-21 03:00N 50°41' W 000°58'612.8
2017-Apr-21 02:30N 50°34' W 001°01'713.7
2017-Apr-21 02:00N 50°31' W 001°10'6914.1
2017-Apr-20 21:07N 50°12' W 002°54'213.1
2017-Apr-20 20:59N 50°11' W 002°56'612.9
2017-Apr-20 20:30N 50°08' W 003°05'612.9
2017-Apr-20 20:00N 50°05' W 003°13'713.1
2017-Apr-20 19:30N 50°00' W 003°21'713.0
2017-Apr-20 19:00N 49°56' W 003°29'713.2
2017-Apr-20 18:30N 49°52' W 003°37'714.1
2017-Apr-20 18:00N 49°48' W 003°45'8614.0
2017-Apr-20 11:51N 48°52' W 005°26'617.3
2017-Apr-20 11:29N 48°48' W 005°33'2617.0
2017-Apr-20 09:58N 48°25' W 005°53'1616.5
2017-Apr-20 08:59N 48°11' W 006°04'2316.4
2017-Apr-20 07:34N 47°50' W 006°20'46514.3
2017-Apr-18 23:03N 40°30' W 009°50'117.0
2017-Apr-18 23:00N 40°29' W 009°50'917.2
2017-Apr-18 22:29N 40°20' W 009°50'817.2
2017-Apr-18 22:00N 40°12' W 009°50'1517.4
2017-Apr-18 21:09N 39°57' W 009°51'217.4
2017-Apr-18 21:00N 39°55' W 009°51'917.7
2017-Apr-18 20:30N 39°46' W 009°52'917.6
2017-Apr-18 20:00N 39°37' W 009°52'917.3
2017-Apr-18 19:30N 39°28' W 009°52'917.7
2017-Apr-18 19:00N 39°20' W 009°52'917.9
2017-Apr-18 18:30N 39°11' W 009°52'918.2
2017-Apr-18 18:00N 39°02' W 009°52'918.1
2017-Apr-18 17:30N 38°53' W 009°52'918.0
2017-Apr-18 17:00N 38°44' W 009°52'918.1
2017-Apr-18 16:30N 38°35' W 009°49'918.0
2017-Apr-18 16:00N 38°26' W 009°47'917.9
2017-Apr-18 15:30N 38°17' W 009°45'917.8
2017-Apr-18 15:00N 38°08' W 009°42'917.7
2017-Apr-18 14:30N 37°60' W 009°40'1817.7
2017-Apr-18 13:31N 37°43' W 009°35'917.5
2017-Apr-18 13:00N 37°34' W 009°32'917.5
2017-Apr-18 12:31N 37°26' W 009°30'917.9
2017-Apr-18 12:01N 37°17' W 009°27'2220.7
2017-Apr-18 10:56N 36°55' W 009°19'510.8
2017-Apr-18 10:26N 36°51' W 009°15'817.8
2017-Apr-18 09:58N 36°45' W 009°08'917.8
2017-Apr-18 09:27N 36°42' W 008°58'817.7
2017-Apr-18 09:00N 36°39' W 008°48'917.5
2017-Apr-18 08:30N 36°36' W 008°38'1217.8
2017-Apr-18 07:50N 36°32' W 008°24'617.3
2017-Apr-18 07:29N 36°31' W 008°17'1117.8
2017-Apr-18 06:54N 36°27' W 008°04'717.6
2017-Apr-18 06:30N 36°25' W 007°56'917.7
2017-Apr-18 06:00N 36°22' W 007°46'1218.0
2017-Apr-18 05:21N 36°18' W 007°32'1118.0
2017-Apr-18 04:45N 36°15' W 007°20'5617.9
2017-Apr-18 01:39N 35°58' W 006°14'317.5
2017-Apr-18 01:29N 35°57' W 006°11'817.5
2017-Apr-18 01:00N 35°57' W 006°00'917.3
2017-Apr-18 00:28N 35°57' W 005°49'816.7
2017-Apr-18 00:00N 35°57' W 005°39'815.3
2017-Apr-17 23:30N 35°59' W 005°30'714.9
2017-Apr-17 23:00N 36°01' W 005°21'816.0
2017-Apr-17 22:30N 36°03' W 005°12'816.1
2017-Apr-17 22:00N 36°07' W 005°03'815.6
2017-Apr-17 21:30N 36°11' W 004°54'1015.6
2017-Apr-17 20:53N 36°15' W 004°44'717.0
2017-Apr-17 20:28N 36°18' W 004°36'818.1
2017-Apr-17 20:00N 36°22' W 004°26'917.6
2017-Apr-17 19:30N 36°31' W 004°25'917.2
2017-Apr-17 19:00N 36°40' W 004°25'  

Dump ship's entire track history